Time;durP1;ratioP1;P1;durP2;ratioP2;P2;SDS_P1;SDS_P2;PMS_P1;PMS_P2;Temp;Humidity;BMP_temperature;BMP_pressure;BME280_temperature;BME280_humidity;BME280_pressure;Samples;Min_cycle;Max_cycle;Signal;HPM_P1;HPM_P2
2022/12/07 00:01:22;;;;;;;17.00;11.02;;;3.30;99.90;;;;;;5018414;28;20030;-80
2022/12/07 00:03:49;;;;;;;19.08;11.77;;;3.30;99.90;;;;;;5022551;28;20041;-80
2022/12/07 00:06:16;;;;;;;16.42;10.65;;;3.30;99.90;;;;;;4999593;28;20096;-80
2022/12/07 00:08:42;;;;;;;12.82;9.07;;;3.30;99.90;;;;;;4999718;28;20044;-80
2022/12/07 00:11:13;;;;;;;14.13;9.48;;;3.30;99.90;;;;;;5018106;28;20446;-80
2022/12/07 00:13:40;;;;;;;13.02;9.00;;;3.40;99.90;;;;;;5002334;28;20096;-80
2022/12/07 00:16:12;;;;;;;11.35;8.35;;;3.40;99.90;;;;;;5016445;28;20037;-81
2022/12/07 00:18:38;;;;;;;;;;;3.40;99.90;;;;;;5019149;28;20033;-80
2022/12/07 00:21:06;;;;;;;13.95;8.82;;;3.30;99.90;;;;;;5017356;28;19906;-79
2022/12/07 00:23:33;;;;;;;13.15;9.00;;;3.30;99.90;;;;;;5032922;28;20040;-79
2022/12/07 00:26:06;;;;;;;15.40;8.60;;;3.30;99.90;;;;;;5027000;28;20025;-80
2022/12/07 00:28:33;;;;;;;13.48;8.82;;;3.30;99.90;;;;;;5019260;28;20391;-79
2022/12/07 00:31:12;;;;;;;16.42;10.32;;;3.30;99.90;;;;;;5017468;28;20028;-79
2022/12/07 00:33:38;;;;;;;13.40;8.93;;;3.30;99.90;;;;;;5032095;28;20464;-79
2022/12/07 00:36:09;;;;;;;14.30;9.05;;;3.30;99.90;;;;;;5034880;28;20083;-81
2022/12/07 00:38:36;;;;;;;13.85;8.98;;;3.20;99.90;;;;;;5035758;28;20025;-80
2022/12/07 00:41:04;;;;;;;11.73;8.13;;;3.20;99.90;;;;;;5036469;28;20037;-80
2022/12/07 00:43:32;;;;;;;12.43;8.25;;;3.20;99.90;;;;;;5010482;28;20490;-80
2022/12/07 00:45:57;;;;;;;11.70;8.27;;;3.20;99.90;;;;;;5016982;28;20033;-80
2022/12/07 00:48:24;;;;;;;11.73;7.85;;;3.10;99.90;;;;;;5016175;28;20103;-80
2022/12/07 00:50:50;;;;;;;13.18;8.85;;;3.20;99.90;;;;;;5019883;28;20052;-80
2022/12/07 00:53:15;;;;;;;11.98;9.48;;;3.10;99.90;;;;;;5017117;28;20113;-79
2022/12/07 00:55:42;;;;;;;13.18;8.95;;;3.10;99.90;;;;;;5016772;28;20021;-79
2022/12/07 00:58:07;;;;;;;12.90;8.65;;;3.20;99.90;;;;;;5015905;28;20018;-81
2022/12/07 01:00:36;;;;;;;12.52;7.93;;;3.20;99.90;;;;;;5016751;28;20034;-81
2022/12/07 01:03:02;;;;;;;14.02;9.40;;;3.20;99.90;;;;;;5017123;28;20026;-80
2022/12/07 01:05:27;;;;;;;13.25;8.93;;;3.20;99.90;;;;;;5016676;28;20044;-80
2022/12/07 01:07:53;;;;;;;12.38;8.40;;;3.20;99.90;;;;;;5016454;28;20033;-79
2022/12/07 01:10:21;;;;;;;12.63;8.80;;;3.20;99.90;;;;;;5018610;28;20034;-81
2022/12/07 01:12:47;;;;;;;11.63;8.02;;;3.10;99.90;;;;;;5017705;28;20029;-81
2022/12/07 01:15:12;;;;;;;12.55;8.50;;;3.10;99.90;;;;;;5018039;28;20006;-79
2022/12/07 01:17:38;;;;;;;12.82;8.55;;;3.10;99.90;;;;;;5016860;28;20037;-79
2022/12/07 01:20:04;;;;;;;17.55;7.80;;;3.10;99.90;;;;;;5016571;28;20061;-79
2022/12/07 01:22:30;;;;;;;11.32;7.88;;;3.10;99.90;;;;;;4998521;28;20029;-80
2022/12/07 01:24:56;;;;;;;12.50;7.53;;;3.10;99.90;;;;;;5031008;28;20032;-80
2022/12/07 01:27:21;;;;;;;11.43;8.10;;;3.10;99.90;;;;;;4998363;28;20036;-79
2022/12/07 01:29:47;;;;;;;10.07;7.18;;;3.10;99.90;;;;;;5015403;28;20029;-80
2022/12/07 01:32:12;;;;;;;11.73;7.00;;;3.10;99.90;;;;;;5016388;28;20041;-81
2022/12/07 01:34:38;;;;;;;10.55;8.00;;;3.10;99.90;;;;;;5023917;28;20083;-79
2022/12/07 01:37:04;;;;;;;11.07;7.97;;;3.00;99.90;;;;;;5024833;28;20041;-79
2022/12/07 01:39:29;;;;;;;11.80;7.57;;;3.00;99.90;;;;;;4999402;28;20535;-81
2022/12/07 01:41:55;;;;;;;11.43;7.85;;;3.00;99.90;;;;;;5002489;28;20056;-79
2022/12/07 01:44:26;;;;;;;12.18;7.53;;;3.00;99.90;;;;;;5019688;28;20446;-79
2022/12/07 01:46:55;;;;;;;12.10;7.80;;;3.00;99.90;;;;;;5034861;28;20022;-79
2022/12/07 01:49:39;;;;;;;11.85;8.10;;;3.10;99.90;;;;;;5035849;28;20021;-79
2022/12/07 01:52:18;;;;;;;10.93;7.53;;;3.10;99.90;;;;;;5034554;28;20034;-80
2022/12/07 01:54:47;;;;;;;10.98;8.35;;;3.00;99.90;;;;;;5035591;28;20479;-79
2022/12/07 01:57:15;;;;;;;13.45;8.35;;;3.00;99.90;;;;;;5014885;28;20026;-79
2022/12/07 01:59:43;;;;;;;12.18;8.88;;;3.00;99.90;;;;;;5018423;28;20533;-79
2022/12/07 02:02:17;;;;;;;11.85;8.07;;;3.00;99.90;;;;;;5016696;28;20439;-79
2022/12/07 02:04:43;;;;;;;13.23;8.63;;;3.00;99.90;;;;;;5020201;28;20026;-79
2022/12/07 02:07:09;;;;;;;13.70;9.07;;;3.00;99.90;;;;;;5025377;28;20095;-80
2022/12/07 02:09:34;;;;;;;11.10;8.25;;;3.00;99.90;;;;;;5021203;28;20026;-80
2022/12/07 02:12:01;;;;;;;12.32;8.30;;;3.00;99.90;;;;;;5039530;28;20038;-80
2022/12/07 02:14:26;;;;;;;13.45;8.93;;;3.00;99.90;;;;;;5024638;28;20029;-79
2022/12/07 02:17:24;;;;;;;11.05;8.07;;;3.00;99.90;;;;;;5039702;28;20048;-79
2022/12/07 02:19:55;;;;;;;13.25;9.15;;;3.00;99.90;;;;;;5022441;28;20030;-79
2022/12/07 02:23:02;;;;;;;13.90;8.73;;;3.00;99.90;;;;;;5040831;28;20017;-79
2022/12/07 02:25:44;;;;;;;10.65;7.78;;;3.00;99.90;;;;;;5034718;28;20092;-79
2022/12/07 02:28:38;;;;;;;13.73;9.10;;;3.00;99.90;;;;;;5023195;28;20056;-80
2022/12/07 02:31:14;;;;;;;11.90;7.90;;;3.00;99.90;;;;;;5021595;28;20042;-79
2022/12/07 02:33:52;;;;;;;15.93;9.38;;;2.90;99.90;;;;;;5021630;28;20100;-80
2022/12/07 02:36:29;;;;;;;11.20;7.90;;;3.00;99.90;;;;;;5042199;28;20079;-79
2022/12/07 02:39:19;;;;;;;10.57;8.02;;;3.00;99.90;;;;;;5045209;28;20035;-80
2022/12/07 02:41:51;;;;;;;13.38;8.30;;;3.00;99.90;;;;;;5028505;28;20030;-79
2022/12/07 02:44:24;;;;;;;12.88;8.48;;;2.90;99.90;;;;;;5033599;28;20124;-79
2022/12/07 02:47:04;;;;;;;13.23;8.45;;;2.90;99.90;;;;;;5008349;28;20026;-79
2022/12/07 02:49:31;;;;;;;11.15;8.05;;;2.90;99.90;;;;;;5001521;28;20038;-80
2022/12/07 02:51:57;;;;;;;13.55;8.25;;;2.90;99.90;;;;;;5022376;28;20090;-79
2022/12/07 02:54:23;;;;;;;10.07;7.40;;;2.90;99.90;;;;;;5007386;28;20049;-79
2022/12/07 02:57:00;;;;;;;10.32;7.15;;;2.90;99.90;;;;;;5024492;28;20046;-78
2022/12/07 02:59:52;;;;;;;12.20;8.65;;;3.00;99.90;;;;;;5004044;28;20068;-78
2022/12/07 03:02:37;;;;;;;12.13;8.40;;;3.00;99.90;;;;;;5018544;28;20467;-78
2022/12/07 03:05:17;;;;;;;13.13;8.20;;;3.00;99.90;;;;;;4999695;28;20034;-77
2022/12/07 03:07:49;;;;;;;13.02;8.77;;;3.00;99.90;;;;;;5004796;28;20066;-78
2022/12/07 03:10:45;;;;;;;11.40;8.27;;;3.00;99.90;;;;;;5006204;28;20042;-78
2022/12/07 03:13:19;;;;;;;13.25;9.23;;;3.00;99.90;;;;;;5005909;28;20042;-78
2022/12/07 03:16:16;;;;;;;11.27;8.40;;;3.00;99.90;;;;;;5005312;28;20119;-80
2022/12/07 03:18:53;;;;;;;12.43;8.27;;;3.00;99.90;;;;;;5016586;28;20038;-79
2022/12/07 03:21:24;;;;;;;12.98;8.60;;;3.00;99.90;;;;;;5005239;28;20032;-78
2022/12/07 03:23:58;;;;;;;13.27;8.55;;;3.00;99.90;;;;;;5022433;28;20022;-79
2022/12/07 03:26:36;;;;;;;12.23;9.13;;;3.00;99.90;;;;;;5017115;28;20099;-78
2022/12/07 03:29:21;;;;;;;11.93;9.02;;;3.00;99.90;;;;;;5015111;28;20112;-79
2022/12/07 03:32:06;;;;;;;13.25;9.15;;;3.00;99.90;;;;;;4999110;28;20026;-79
2022/12/07 03:34:47;;;;;;;13.95;9.50;;;3.00;99.90;;;;;;5007547;28;20033;-80
2022/12/07 03:37:20;;;;;;;13.88;9.05;;;3.00;99.90;;;;;;5020621;28;20029;-81
2022/12/07 03:40:22;;;;;;;15.77;9.27;;;3.00;99.90;;;;;;5001307;28;20183;-80
2022/12/07 03:42:48;;;;;;;13.35;8.55;;;3.00;99.90;;;;;;5016393;28;20109;-80
2022/12/07 03:45:15;;;;;;;16.38;10.02;;;3.00;99.90;;;;;;5019276;28;20052;-78
2022/12/07 03:47:58;;;;;;;13.77;9.07;;;3.00;99.90;;;;;;5020193;28;20030;-80
2022/12/07 03:50:30;;;;;;;15.10;9.80;;;3.00;99.90;;;;;;5019940;28;20025;-80
2022/12/07 03:53:05;;;;;;;15.40;9.98;;;3.00;99.90;;;;;;5022798;28;20037;-80
2022/12/07 03:55:35;;;;;;;13.77;9.75;;;3.00;99.90;;;;;;5021017;28;20080;-80
2022/12/07 03:58:08;;;;;;;13.05;9.55;;;3.00;99.90;;;;;;5021964;28;20029;-81
2022/12/07 04:00:34;;;;;;;15.30;8.93;;;3.00;99.90;;;;;;5023878;28;20034;-80
2022/12/07 04:03:00;;;;;;;16.63;10.77;;;3.00;99.90;;;;;;5031481;28;20036;-78
2022/12/07 04:05:26;;;;;;;15.18;10.38;;;3.00;99.90;;;;;;5035607;28;20010;-79
2022/12/07 04:07:51;;;;;;;12.98;9.57;;;2.90;99.90;;;;;;5035063;28;20038;-79
2022/12/07 04:10:18;;;;;;;18.17;10.80;;;2.90;99.90;;;;;;5014738;28;20030;-81
2022/12/07 04:12:44;;;;;;;15.02;9.30;;;2.90;99.90;;;;;;5020451;28;20506;-81
2022/12/07 04:15:10;;;;;;;15.23;9.98;;;2.90;99.90;;;;;;5017342;28;20062;-80
2022/12/07 04:17:36;;;;;;;13.43;10.05;;;2.90;99.90;;;;;;5016521;28;20121;-80
2022/12/07 04:20:03;;;;;;;16.13;10.95;;;2.90;99.90;;;;;;5017938;28;20506;-81
2022/12/07 04:22:29;;;;;;;13.88;9.57;;;2.90;99.90;;;;;;5016236;28;20029;-80
2022/12/07 04:24:55;;;;;;;14.52;10.00;;;2.90;99.90;;;;;;5016247;28;20030;-81
2022/12/07 04:27:21;;;;;;;14.07;9.63;;;2.90;99.90;;;;;;5012936;28;20108;-78
2022/12/07 04:29:52;;;;;;;16.00;10.25;;;2.90;99.90;;;;;;4998236;28;20160;-83
2022/12/07 04:32:17;;;;;;;17.33;10.77;;;2.90;99.90;;;;;;4979250;28;20076;-81
2022/12/07 04:34:43;;;;;;;16.67;10.60;;;2.90;99.90;;;;;;4996919;28;20065;-79
2022/12/07 04:37:09;;;;;;;15.75;10.93;;;2.90;99.90;;;;;;4996079;28;20050;-80
2022/12/07 04:39:34;;;;;;;18.00;10.23;;;2.90;99.90;;;;;;4996734;28;20030;-79
2022/12/07 04:42:00;;;;;;;14.70;10.05;;;2.90;99.90;;;;;;4979181;28;20100;-79
2022/12/07 04:44:28;;;;;;;14.07;9.23;;;2.90;99.90;;;;;;5017230;28;20048;-82
2022/12/07 04:46:55;;;;;;;18.02;10.32;;;2.90;99.90;;;;;;5035843;28;20130;-81
2022/12/07 04:49:21;;;;;;;14.23;9.25;;;2.90;99.90;;;;;;5036814;28;20403;-81
2022/12/07 04:51:47;;;;;;;15.30;9.50;;;2.90;99.90;;;;;;5035458;28;20120;-82
2022/12/07 04:54:14;;;;;;;16.25;10.55;;;2.90;99.90;;;;;;5038855;28;20029;-81
2022/12/07 04:56:39;;;;;;;16.15;10.10;;;2.90;99.90;;;;;;5018952;28;20018;-82
2022/12/07 04:59:05;;;;;;;13.68;9.45;;;2.90;99.90;;;;;;5016660;28;20097;-81
2022/12/07 05:01:31;;;;;;;13.52;8.65;;;2.90;99.90;;;;;;5020941;28;20033;-82
2022/12/07 05:03:57;;;;;;;15.02;9.85;;;2.90;99.90;;;;;;5001861;28;20022;-81
2022/12/07 05:06:24;;;;;;;15.50;9.50;;;2.90;99.90;;;;;;5017397;28;20033;-82
2022/12/07 05:08:49;;;;;;;16.00;9.98;;;2.90;99.90;;;;;;5018863;28;20491;-81
2022/12/07 05:14:00;;;;;;;14.30;9.75;;;2.90;99.90;;;;;;5012774;28;20060;-82
2022/12/07 05:16:26;;;;;;;14.82;9.52;;;2.80;99.90;;;;;;5017153;28;20116;-80
2022/12/07 05:18:52;;;;;;;13.68;9.30;;;2.80;99.90;;;;;;5018755;28;20033;-81
2022/12/07 05:21:18;;;;;;;14.30;9.45;;;2.80;99.90;;;;;;5037877;28;20037;-81
2022/12/07 05:23:44;;;;;;;14.02;9.27;;;2.80;99.90;;;;;;5020234;28;20026;-80
2022/12/07 05:26:09;;;;;;;13.60;8.82;;;2.80;99.90;;;;;;5029193;28;20069;-80
2022/12/07 05:28:35;;;;;;;13.57;9.60;;;2.80;99.90;;;;;;5017096;28;20030;-82
2022/12/07 05:31:01;;;;;;;13.93;9.18;;;2.80;99.90;;;;;;5018128;28;20025;-81
2022/12/07 05:33:27;;;;;;;11.38;8.50;;;2.80;99.90;;;;;;5018220;28;20056;-80
2022/12/07 05:35:53;;;;;;;14.25;9.85;;;2.80;99.90;;;;;;5038350;22;20030;-82
2022/12/07 05:38:36;;;;;;;11.98;8.18;;;2.80;99.90;;;;;;5007777;28;20030;-82
2022/12/07 05:44:31;;;;;;;12.45;8.10;;;2.80;99.90;;;;;;5019445;28;20038;-83
2022/12/07 05:50:03;;;;;;;13.18;8.82;;;2.80;99.90;;;;;;5000954;28;20026;-83
2022/12/07 05:52:29;;;;;;;11.02;8.13;;;2.80;99.90;;;;;;4983073;28;20023;-83
2022/12/07 05:54:58;;;;;;;15.18;9.23;;;2.90;99.90;;;;;;4964888;28;20069;-83
2022/12/07 05:57:24;;;;;;;12.10;9.75;;;2.80;99.90;;;;;;5000477;28;20316;-83
2022/12/07 05:59:50;;;;;;;13.63;9.95;;;2.80;99.90;;;;;;4984032;28;20026;-83
2022/12/07 06:02:17;;;;;;;13.88;9.73;;;2.70;99.90;;;;;;5008014;28;20090;-82
2022/12/07 06:04:46;;;;;;;14.95;9.82;;;2.70;99.90;;;;;;5018571;28;20034;-82
2022/12/07 06:07:13;;;;;;;12.48;8.75;;;2.70;99.90;;;;;;5018947;28;20033;-82
2022/12/07 06:09:39;;;;;;;15.85;10.05;;;2.60;99.90;;;;;;5018780;28;20010;-84
2022/12/07 06:14:50;;;;;;;15.90;9.93;;;2.60;99.90;;;;;;5007321;28;20037;-83
2022/12/07 06:17:16;;;;;;;17.08;11.18;;;2.60;99.90;;;;;;4980135;28;20121;-83
2022/12/07 06:19:42;;;;;;;14.73;10.57;;;2.70;99.90;;;;;;4983623;28;20110;-83
2022/12/07 06:22:09;;;;;;;15.25;10.02;;;2.60;99.90;;;;;;5013499;28;20026;-82
2022/12/07 06:25:10;;;;;;;16.60;10.15;;;2.70;99.90;;;;;;5013844;28;20026;-83
2022/12/07 06:27:40;;;;;;;14.90;10.80;;;2.70;99.90;;;;;;5000798;28;20093;-83
2022/12/07 06:30:29;;;;;;;13.25;9.68;;;2.70;99.90;;;;;;5000486;28;20026;-83
2022/12/07 06:32:56;;;;;;;17.10;11.27;;;2.70;99.90;;;;;;5027232;28;20042;-83
2022/12/07 06:35:21;;;;;;;18.70;10.85;;;2.70;99.90;;;;;;5001149;28;20038;-82
2022/12/07 06:37:47;;;;;;;19.10;13.13;;;2.70;99.90;;;;;;4986409;28;20080;-82
2022/12/07 06:40:13;;;;;;;42.53;22.88;;;2.70;99.90;;;;;;5001393;28;20038;-82
2022/12/07 06:42:38;;;;;;;20.08;14.93;;;2.70;99.90;;;;;;4977909;28;20067;-82
2022/12/07 06:45:05;;;;;;;14.57;10.38;;;2.70;99.90;;;;;;4981735;28;20022;-83
2022/12/07 06:47:30;;;;;;;13.73;9.95;;;2.70;99.90;;;;;;4997859;28;20081;-84
2022/12/07 06:49:56;;;;;;;15.77;10.55;;;2.80;99.90;;;;;;5000454;28;20030;-83
2022/12/07 06:52:22;;;;;;;28.95;26.00;;;2.70;99.90;;;;;;4999978;28;20026;-84
2022/12/07 06:54:47;;;;;;;13.88;10.90;;;2.80;99.90;;;;;;4999494;28;20442;-84
2022/12/07 06:57:15;;;;;;;13.45;9.65;;;2.80;99.90;;;;;;4982082;28;20030;-84
2022/12/07 06:59:41;;;;;;;14.63;9.57;;;2.70;99.90;;;;;;5001611;28;20085;-84
2022/12/07 07:02:13;;;;;;;14.40;10.52;;;2.80;99.90;;;;;;5002393;28;20033;-83
2022/12/07 07:04:39;;;;;;;12.73;9.50;;;2.80;99.90;;;;;;5000252;28;20026;-83
2022/12/07 07:07:05;;;;;;;14.52;10.55;;;2.80;99.90;;;;;;4998393;28;20077;-83
2022/12/07 07:09:31;;;;;;;13.15;10.18;;;2.80;99.90;;;;;;5002686;28;20034;-83
2022/12/07 07:11:56;;;;;;;13.48;10.15;;;2.80;99.90;;;;;;5008665;28;20195;-83
2022/12/07 07:14:28;;;;;;;12.85;10.07;;;2.80;99.90;;;;;;5013327;28;20026;-83
2022/12/07 07:16:54;;;;;;;24.13;11.48;;;2.80;99.90;;;;;;5012885;28;20023;-83
2022/12/07 07:19:20;;;;;;;14.88;9.43;;;2.80;99.90;;;;;;5010090;28;20045;-83
2022/12/07 07:22:11;;;;;;;53.55;34.25;;;2.80;99.90;;;;;;5004809;28;20019;-83
2022/12/07 07:28:13;;;;;;;20.75;15.07;;;2.90;99.90;;;;;;5031376;28;20097;-83
2022/12/07 07:30:39;;;;;;;17.27;13.15;;;2.90;99.90;;;;;;5031134;28;20024;-84
2022/12/07 07:33:05;;;;;;;18.50;11.85;;;3.00;99.90;;;;;;5030820;28;20033;-84
2022/12/07 07:38:56;;;;;;;;;;;3.00;99.90;;;;;;5030125;28;20053;-82
2022/12/07 07:41:25;;;;;;;13.18;8.95;;;3.10;99.90;;;;;;5035966;28;19969;-82
2022/12/07 07:43:53;;;;;;;12.35;8.98;;;3.10;99.90;;;;;;5032609;28;20053;-84
2022/12/07 08:00:56;;;;;;;15.73;10.15;;;3.20;99.90;;;;;;5044762;28;20105;-83
2022/12/07 08:10:04;;;;;;;13.60;9.15;;;3.30;99.90;;;;;;5070468;28;20140;-82
2022/12/07 08:13:34;;;;;;;12.57;9.00;;;3.30;99.90;;;;;;5071299;28;20025;-83
2022/12/07 08:24:01;;;;;;;;;;;;;;;;;;;;;
2022/12/07 08:26:26;;;;;;;13.20;8.73;;;3.50;99.90;;;;;;5007162;28;20072;-81
2022/12/07 08:28:55;;;;;;;16.70;10.23;;;3.50;99.90;;;;;;4984818;28;20042;-80
2022/12/07 08:31:20;;;;;;;16.08;10.35;;;3.50;99.90;;;;;;5042334;28;20109;-82
2022/12/07 08:33:47;;;;;;;17.98;11.30;;;3.50;99.90;;;;;;5037246;28;20080;-81
2022/12/07 08:36:13;;;;;;;17.10;10.45;;;3.60;99.90;;;;;;5036583;28;20096;-81
2022/12/07 08:38:40;;;;;;;17.45;10.43;;;3.60;99.90;;;;;;5037952;28;20036;-82
2022/12/07 08:41:07;;;;;;;21.65;12.18;;;3.70;99.90;;;;;;5031977;28;20085;-82
2022/12/07 08:43:33;;;;;;;15.88;10.93;;;3.70;99.90;;;;;;5037981;28;20104;-81
2022/12/07 08:46:15;;;;;;;14.80;11.48;;;3.80;99.90;;;;;;5037098;28;20018;-83
2022/12/07 08:48:48;;;;;;;15.27;10.83;;;3.80;99.90;;;;;;5054177;28;20028;-82
2022/12/07 08:51:13;;;;;;;19.17;12.35;;;3.80;99.90;;;;;;5044498;28;20284;-82
2022/12/07 08:53:40;;;;;;;16.35;10.05;;;3.90;99.90;;;;;;5016906;28;20069;-82
2022/12/07 08:56:06;;;;;;;15.48;11.02;;;3.90;99.90;;;;;;5012783;28;20055;-82
2022/12/07 08:58:34;;;;;;;15.50;10.13;;;4.00;99.90;;;;;;5033232;28;20029;-83
2022/12/07 09:00:59;;;;;;;15.20;9.98;;;4.00;99.90;;;;;;5050135;28;20023;-82
2022/12/07 09:03:25;;;;;;;13.80;10.18;;;4.10;99.90;;;;;;5049751;28;20029;-82
2022/12/07 09:06:02;;;;;;;13.25;9.88;;;4.00;99.90;;;;;;5083016;22;20045;-80
2022/12/07 09:08:49;;;;;;;12.65;9.95;;;4.10;99.90;;;;;;5053921;28;20041;-83
2022/12/07 09:26:22;;;;;;;;;;;;;;;;;;;;;
2022/12/07 09:36:24;;;;;;;11.88;8.93;;;4.40;99.00;;;;;;4985139;28;20027;-81
2022/12/07 09:39:51;;;;;;;12.90;9.15;;;4.50;99.30;;;;;;4978215;28;20030;-83
2022/12/07 09:43:23;;;;;;;14.90;9.82;;;4.60;99.20;;;;;;4975106;28;20048;-83
2022/12/07 09:55:52;;;;;;;10.93;7.95;;;5.10;98.20;;;;;;5046038;28;20056;-82
2022/12/07 10:05:31;;;;;;;11.98;7.45;;;5.20;96.40;;;;;;5046026;28;20028;-84
2022/12/07 10:15:02;;;;;;;;;;;5.20;95.80;;;;;;5056367;28;20025;-84
2022/12/07 10:55:26;;;;;;;58.20;24.08;;;6.50;90.80;;;;;;5407956;23;20461;-83
2022/12/07 10:58:35;;;;;;;60.72;24.55;;;6.50;88.60;;;;;;5077131;28;20621;-83
2022/12/07 11:01:44;;;;;;;16.95;8.93;;;6.60;90.00;;;;;;5068639;28;20032;-84
2022/12/07 11:05:03;;;;;;;14.95;9.75;;;6.70;88.70;;;;;;5071200;28;20093;-82
2022/12/07 11:08:03;;;;;;;9.82;6.88;;;6.70;88.30;;;;;;5050998;28;20117;-83
2022/12/07 11:10:39;;;;;;;9.05;6.47;;;6.70;88.70;;;;;;5060190;28;20534;-84
2022/12/07 11:14:12;;;;;;;;;;;;;;;;;;;;;
2022/12/07 11:17:05;;;;;;;;;;;6.70;85.60;;;;;;5048235;28;20059;-83
2022/12/07 11:20:20;;;;;;;9.27;5.78;;;6.40;86.30;;;;;;5070457;28;19909;-84
2022/12/07 11:23:28;;;;;;;10.35;5.65;;;6.30;86.50;;;;;;5057139;28;20121;-84
2022/12/07 11:26:25;;;;;;;7.63;5.32;;;6.00;87.10;;;;;;5144066;22;20041;-83
2022/12/07 11:29:31;;;;;;;;;;;;;;;;;;;;;
2022/12/07 11:32:37;;;;;;;11.27;6.80;;;6.00;86.80;;;;;;5069490;28;20059;-85
2022/12/07 11:42:49;;;;;;;;;;;;;;;;;;;;;
2022/12/07 12:06:49;;;;;;;8.45;5.85;;;6.30;85.60;;;;;;5196080;22;20060;-85
2022/12/07 12:13:38;;;;;;;10.17;6.80;;;6.50;83.50;;;;;;5052497;28;20029;-84
2022/12/07 12:17:05;;;;;;;9.20;5.65;;;6.40;83.80;;;;;;4972262;28;20286;-85
2022/12/07 12:38:11;;;;;;;7.05;5.38;;;6.50;82.40;;;;;;5045956;28;20037;-85
2022/12/07 12:48:46;;;;;;;;;;;;;;;;;;;;;
2022/12/07 13:33:51;;;;;;;11.68;7.13;;;4.90;88.00;;;;;;5091869;28;20044;-85
2022/12/07 13:37:01;;;;;;;;;;;;;;;;;;;;;
2022/12/07 14:01:36;;;;;;;41.83;18.70;;;4.30;91.00;;;;;;5079269;28;20051;-85
2022/12/07 14:12:03;;;;;;;11.60;7.13;;;4.10;91.30;;;;;;4913479;29;20050;-84
2022/12/07 14:23:29;;;;;;;;;;;4.00;91.60;;;;;;5059466;28;20079;-85
2022/12/07 14:29:53;;;;;;;12.70;8.30;;;3.90;91.90;;;;;;4983542;28;20041;-85
2022/12/07 14:39:08;;;;;;;;;;;;;;;;;;;;;
2022/12/07 15:40:45;;;;;;;11.98;6.32;;;3.70;92.00;;;;;;5087266;28;20044;-85
2022/12/07 17:57:39;;;;;;;13.80;7.93;;;2.40;98.80;;;;;;4806595;26;20459;-84
2022/12/07 18:00:05;;;;;;;16.90;9.32;;;2.30;99.10;;;;;;5098549;28;20060;-83
2022/12/07 18:02:52;;;;;;;15.23;9.23;;;2.20;99.40;;;;;;5079483;28;20119;-82
2022/12/07 22:13:20;;;;;;;14.80;8.32;;;3.00;98.90;;;;;;5041724;28;20049;-84
